Time;durP1;ratioP1;P1;durP2;ratioP2;P2;SDS_P1;SDS_P2;PMS_P1;PMS_P2;Temp;Humidity;BMP_temperature;BMP_pressure;BME280_temperature;BME280_humidity;BME280_pressure;Samples;Min_cycle;Max_cycle;Signal;HPM_P1;HPM_P2
2022/11/02 00:02:20;;;;;;;9.13;6.70;;;12.10;99.90;;;;;;5080240;28;20205;-75
2022/11/02 00:04:45;;;;;;;12.37;6.03;;;12.10;99.90;;;;;;5088178;28;20189;-75
2022/11/02 00:07:11;;;;;;;13.87;7.20;;;12.00;99.90;;;;;;5087426;28;20205;-75
2022/11/02 00:09:36;;;;;;;10.47;6.80;;;12.00;99.90;;;;;;5097431;28;20244;-75
2022/11/02 00:12:02;;;;;;;10.10;6.90;;;11.90;99.90;;;;;;5091244;28;20211;-75
2022/11/02 00:14:28;;;;;;;15.00;6.53;;;11.90;99.90;;;;;;5074895;28;20688;-75
2022/11/02 00:16:53;;;;;;;8.17;6.90;;;11.80;99.90;;;;;;5095362;28;20687;-75
2022/11/02 00:19:19;;;;;;;8.60;6.13;;;11.90;99.90;;;;;;5097013;28;20193;-75
2022/11/02 00:21:44;;;;;;;9.80;6.80;;;11.90;99.90;;;;;;5085986;28;20704;-75
2022/11/02 00:24:11;;;;;;;9.00;6.93;;;11.80;99.90;;;;;;5087100;28;20234;-75
2022/11/02 00:26:37;;;;;;;8.43;6.47;;;11.80;99.90;;;;;;5075874;28;20260;-75
2022/11/02 00:29:04;;;;;;;9.00;6.17;;;11.80;99.90;;;;;;5091133;28;20183;-76
2022/11/02 00:31:30;;;;;;;10.60;5.97;;;11.70;99.90;;;;;;5085189;28;20401;-75
2022/11/02 00:33:55;;;;;;;10.17;6.37;;;11.70;99.90;;;;;;5091201;28;20297;-75
2022/11/02 00:36:23;;;;;;;9.93;6.00;;;11.70;99.90;;;;;;5096250;28;20580;-74
2022/11/02 00:38:49;;;;;;;9.07;6.47;;;11.70;99.90;;;;;;5086740;28;20318;-75
2022/11/02 00:41:17;;;;;;;11.67;5.93;;;11.60;99.90;;;;;;5087418;28;20293;-75
2022/11/02 00:43:42;;;;;;;9.20;7.03;;;11.60;99.90;;;;;;5096990;28;20202;-75
2022/11/02 00:46:08;;;;;;;9.47;6.20;;;11.60;99.90;;;;;;5073552;28;20233;-75
2022/11/02 00:48:33;;;;;;;8.03;5.50;;;11.60;99.90;;;;;;5085943;28;20191;-75
2022/11/02 00:50:59;;;;;;;10.30;6.00;;;11.50;99.90;;;;;;5088383;28;20229;-75
2022/11/02 00:53:24;;;;;;;10.43;6.17;;;11.50;99.90;;;;;;5096160;28;20639;-75
2022/11/02 00:55:50;;;;;;;8.97;6.53;;;11.40;99.90;;;;;;5073439;28;20641;-75
2022/11/02 00:58:15;;;;;;;8.87;5.53;;;11.40;99.90;;;;;;5096053;28;20170;-75
2022/11/02 01:00:41;;;;;;;9.80;6.57;;;11.40;99.90;;;;;;5101101;28;20203;-75
2022/11/02 01:03:06;;;;;;;10.90;5.30;;;11.40;99.90;;;;;;5094142;28;20598;-75
2022/11/02 01:05:32;;;;;;;10.00;5.73;;;11.40;99.90;;;;;;5086096;28;20775;-76
2022/11/02 01:07:58;;;;;;;7.50;5.27;;;11.40;99.90;;;;;;5088440;28;20182;-75
2022/11/02 01:10:25;;;;;;;8.67;5.53;;;11.40;99.90;;;;;;5077831;28;20221;-77
2022/11/02 01:12:50;;;;;;;9.23;5.80;;;11.30;99.90;;;;;;5085757;28;20289;-75
2022/11/02 01:15:16;;;;;;;8.07;5.10;;;11.30;99.90;;;;;;5077758;28;20622;-76
2022/11/02 01:17:41;;;;;;;8.10;5.37;;;11.30;99.90;;;;;;5100920;28;20198;-75
2022/11/02 01:20:08;;;;;;;8.60;5.57;;;11.30;99.90;;;;;;5091533;28;20210;-75
2022/11/02 01:22:34;;;;;;;9.20;4.87;;;11.30;99.90;;;;;;5074163;28;20196;-74
2022/11/02 01:25:00;;;;;;;8.30;5.93;;;11.20;99.90;;;;;;5077097;28;20209;-75
2022/11/02 01:27:25;;;;;;;7.97;4.70;;;11.30;99.90;;;;;;5077461;28;20201;-74
2022/11/02 01:29:51;;;;;;;8.27;5.40;;;11.30;99.90;;;;;;5086495;28;20286;-75
2022/11/02 01:32:16;;;;;;;8.00;4.77;;;11.30;99.90;;;;;;5074051;28;20331;-75
2022/11/02 01:34:42;;;;;;;8.70;5.37;;;11.20;99.90;;;;;;5093253;28;20260;-75
2022/11/02 01:37:08;;;;;;;10.53;4.53;;;11.20;99.90;;;;;;5091885;28;20209;-75
2022/11/02 01:39:34;;;;;;;6.97;4.83;;;11.20;99.90;;;;;;5085022;28;20202;-75
2022/11/02 01:41:59;;;;;;;8.10;4.80;;;11.20;99.90;;;;;;5068684;28;20219;-75
2022/11/02 01:44:33;;;;;;;8.13;4.30;;;11.20;99.90;;;;;;5095763;28;20210;-74
2022/11/02 01:47:06;;;;;;;6.63;4.67;;;11.20;99.90;;;;;;5087833;28;20194;-75
2022/11/02 01:49:36;;;;;;;6.43;4.00;;;11.10;99.90;;;;;;5083669;28;20572;-74
2022/11/02 01:52:07;;;;;;;6.73;4.60;;;11.10;99.90;;;;;;5094884;28;20228;-75
2022/11/02 01:54:41;;;;;;;6.97;3.83;;;11.00;99.90;;;;;;5091241;28;20688;-74
2022/11/02 01:57:11;;;;;;;7.30;3.70;;;11.00;99.90;;;;;;5085018;28;20247;-74
2022/11/02 01:59:47;;;;;;;6.77;3.80;;;11.00;99.90;;;;;;5093187;28;20214;-75
2022/11/02 02:02:18;;;;;;;11.17;4.43;;;11.00;99.90;;;;;;5094214;28;20718;-74
2022/11/02 02:04:46;;;;;;;8.17;3.80;;;10.90;99.90;;;;;;5085063;28;20182;-75
2022/11/02 02:07:13;;;;;;;6.43;3.80;;;10.90;99.90;;;;;;5076060;28;20282;-73
2022/11/02 02:09:40;;;;;;;7.83;4.13;;;11.00;99.90;;;;;;5094743;28;20680;-74
2022/11/02 02:12:06;;;;;;;7.77;3.73;;;10.90;99.90;;;;;;5088239;28;20219;-75
2022/11/02 02:14:32;;;;;;;7.53;3.83;;;10.90;99.90;;;;;;5084064;28;20278;-75
2022/11/02 02:17:03;;;;;;;8.90;3.73;;;10.90;99.90;;;;;;5079537;28;20174;-75
2022/11/02 02:20:08;;;;;;;6.17;3.50;;;10.90;99.90;;;;;;5075071;28;20190;-74
2022/11/02 02:23:00;;;;;;;6.60;4.33;;;10.80;99.90;;;;;;5077872;28;20237;-75
2022/11/02 02:25:47;;;;;;;5.70;3.77;;;10.80;99.90;;;;;;5090345;28;20289;-74
2022/11/02 02:28:52;;;;;;;5.57;3.37;;;10.80;99.90;;;;;;5075024;28;20202;-74
2022/11/02 02:31:34;;;;;;;5.23;3.50;;;10.80;99.90;;;;;;5084117;28;20216;-74
2022/11/02 02:34:09;;;;;;;6.40;3.70;;;10.70;99.90;;;;;;5086342;28;20206;-74
2022/11/02 02:37:08;;;;;;;5.97;3.50;;;10.80;99.90;;;;;;5092666;28;20655;-75
2022/11/02 02:39:44;;;;;;;4.73;3.30;;;10.80;99.90;;;;;;5087044;28;20200;-75
2022/11/02 02:42:28;;;;;;;8.00;3.60;;;10.70;99.90;;;;;;5090953;28;20700;-74
2022/11/02 02:44:57;;;;;;;5.47;3.07;;;10.60;99.90;;;;;;5089873;28;20700;-75
2022/11/02 02:47:26;;;;;;;5.70;3.13;;;10.60;99.90;;;;;;5070682;28;20224;-75
2022/11/02 02:50:02;;;;;;;9.07;3.27;;;10.60;99.90;;;;;;5079466;28;20178;-74
2022/11/02 02:52:30;;;;;;;5.73;2.93;;;10.60;99.90;;;;;;5082687;28;20592;-75
2022/11/02 02:54:58;;;;;;;7.47;3.47;;;10.60;99.90;;;;;;5091173;28;20255;-75
2022/11/02 02:57:26;;;;;;;7.73;3.30;;;10.60;99.90;;;;;;5088764;28;20207;-74
2022/11/02 02:59:53;;;;;;;5.23;3.53;;;10.70;99.90;;;;;;5081747;28;20695;-75
2022/11/02 03:02:23;;;;;;;4.53;2.87;;;10.60;99.90;;;;;;5100120;28;20335;-74
2022/11/02 03:04:49;;;;;;;6.70;3.17;;;10.60;99.90;;;;;;5088566;28;20186;-74
2022/11/02 03:07:23;;;;;;;5.97;3.37;;;10.60;99.90;;;;;;5079788;28;20177;-74
2022/11/02 03:09:50;;;;;;;6.23;3.03;;;10.50;99.90;;;;;;5075835;28;20289;-75
2022/11/02 03:12:35;;;;;;;6.30;3.03;;;10.60;99.90;;;;;;5080932;28;20692;-73
2022/11/02 03:15:24;;;;;;;7.97;2.70;;;10.50;99.90;;;;;;5085283;28;20696;-75
2022/11/02 03:18:29;;;;;;;8.23;3.23;;;10.60;99.90;;;;;;5068075;28;20218;-74
2022/11/02 03:21:22;;;;;;;5.03;2.60;;;10.50;99.90;;;;;;5072546;28;20210;-74
2022/11/02 03:23:53;;;;;;;5.33;2.70;;;10.40;99.90;;;;;;5086503;28;20214;-74
2022/11/02 03:27:06;;;;;;;5.13;2.90;;;10.40;99.90;;;;;;5091233;28;20671;-74
2022/11/02 03:29:38;;;;;;;4.60;2.70;;;10.30;99.90;;;;;;5022176;28;20212;-74
2022/11/02 03:32:12;;;;;;;3.77;2.50;;;10.30;99.90;;;;;;5009634;28;20216;-75
2022/11/02 03:34:46;;;;;;;4.57;2.80;;;10.40;99.90;;;;;;5052483;28;20288;-75
2022/11/02 03:37:22;;;;;;;4.27;2.53;;;10.30;99.90;;;;;;5095519;28;20201;-74
2022/11/02 03:40:16;;;;;;;7.83;2.90;;;10.20;99.90;;;;;;5085405;28;20610;-75
2022/11/02 03:42:42;;;;;;;4.37;2.40;;;10.30;99.90;;;;;;5098777;28;20211;-75
2022/11/02 03:45:19;;;;;;;4.90;2.73;;;10.20;99.90;;;;;;5085047;28;20213;-74
2022/11/02 03:47:59;;;;;;;4.27;2.47;;;10.20;99.90;;;;;;5089802;28;20206;-74
2022/11/02 03:50:26;;;;;;;4.80;2.23;;;10.20;99.90;;;;;;5088869;28;20292;-74
2022/11/02 03:53:08;;;;;;;5.13;2.70;;;10.20;99.90;;;;;;5072696;28;20225;-74
2022/11/02 03:55:41;;;;;;;6.53;2.83;;;10.10;99.90;;;;;;5091049;28;20659;-74
2022/11/02 03:58:10;;;;;;;6.43;2.30;;;10.20;99.90;;;;;;5087158;28;20257;-74
2022/11/02 04:00:42;;;;;;;3.50;2.40;;;10.20;99.90;;;;;;5098328;28;20297;-74
2022/11/02 04:03:11;;;;;;;9.37;3.00;;;10.20;99.90;;;;;;5086021;28;20701;-73
2022/11/02 04:05:36;;;;;;;7.30;2.80;;;10.20;99.90;;;;;;5085688;28;20289;-75
2022/11/02 04:08:21;;;;;;;5.07;3.00;;;10.20;99.90;;;;;;5091440;28;20254;-74
2022/11/02 04:16:20;;;;;;;3.93;2.77;;;10.00;99.90;;;;;;5095878;28;20297;-74
2022/11/02 04:21:31;;;;;;;11.03;3.33;;;10.00;99.90;;;;;;5087775;28;20212;-75
2022/11/02 04:26:41;;;;;;;3.63;2.40;;;10.10;99.90;;;;;;5097251;28;20255;-74
2022/11/02 04:29:07;;;;;;;6.87;2.40;;;10.00;99.90;;;;;;5073930;28;20215;-74
2022/11/02 04:31:32;;;;;;;6.23;2.57;;;10.00;99.90;;;;;;5086175;28;20698;-74
2022/11/02 04:33:58;;;;;;;10.53;3.17;;;9.90;99.90;;;;;;5088478;28;20206;-74
2022/11/02 04:36:25;;;;;;;6.33;2.80;;;10.00;99.90;;;;;;5096119;28;20623;-73
2022/11/02 04:38:51;;;;;;;7.03;2.97;;;9.90;99.90;;;;;;5071465;28;20256;-74
2022/11/02 04:44:05;;;;;;;7.10;2.70;;;10.00;99.90;;;;;;5096300;28;20614;-74
2022/11/02 04:46:33;;;;;;;6.27;2.67;;;10.00;99.90;;;;;;5095526;28;20206;-74
2022/11/02 04:48:58;;;;;;;6.33;2.70;;;10.00;99.90;;;;;;5083872;28;20578;-73
2022/11/02 04:51:25;;;;;;;9.30;3.33;;;9.90;99.90;;;;;;5093556;28;20218;-73
2022/11/02 04:53:53;;;;;;;10.10;2.90;;;9.80;99.90;;;;;;5091762;28;20206;-73
2022/11/02 04:56:19;;;;;;;5.73;2.57;;;9.80;99.90;;;;;;5082631;28;20202;-74
2022/11/02 04:58:52;;;;;;;11.90;2.77;;;9.70;99.90;;;;;;5088971;28;20188;-74
2022/11/02 05:01:18;;;;;;;6.20;2.77;;;9.80;99.90;;;;;;5091188;28;20742;-74
2022/11/02 05:03:49;;;;;;;6.23;2.50;;;9.80;99.90;;;;;;5089464;28;20209;-74
2022/11/02 05:06:16;;;;;;;10.47;2.90;;;9.80;99.90;;;;;;5072879;28;20406;-74
2022/11/02 05:08:42;;;;;;;8.40;2.87;;;9.80;99.90;;;;;;5094158;28;20198;-74
2022/11/02 05:11:09;;;;;;;9.83;3.20;;;9.70;99.90;;;;;;5092947;28;20213;-74
2022/11/02 05:13:36;;;;;;;6.63;2.97;;;9.70;99.90;;;;;;5087557;28;20162;-74
2022/11/02 05:16:01;;;;;;;7.07;2.57;;;9.70;99.90;;;;;;5089714;28;20212;-75
2022/11/02 05:18:31;;;;;;;9.80;2.73;;;9.70;99.90;;;;;;5072905;28;20201;-74
2022/11/02 05:20:59;;;;;;;11.00;2.90;;;9.60;99.90;;;;;;5088169;28;20225;-74
2022/11/02 05:23:26;;;;;;;6.77;2.70;;;9.70;99.90;;;;;;5088291;28;20206;-74
2022/11/02 05:26:02;;;;;;;5.73;2.60;;;9.70;99.90;;;;;;5093043;28;20693;-74
2022/11/02 05:28:30;;;;;;;7.17;2.73;;;9.60;99.90;;;;;;5088904;28;20248;-74
2022/11/02 05:30:59;;;;;;;5.53;2.50;;;9.60;99.90;;;;;;5069793;28;20272;-75
2022/11/02 05:33:26;;;;;;;6.57;3.17;;;9.60;99.90;;;;;;5087255;28;20205;-74
2022/11/02 05:35:53;;;;;;;6.47;2.90;;;9.60;99.90;;;;;;5093136;28;20275;-74
2022/11/02 05:38:19;;;;;;;8.53;2.77;;;9.60;99.90;;;;;;5082647;28;20206;-74
2022/11/02 05:40:54;;;;;;;11.13;2.70;;;9.70;99.90;;;;;;5082731;28;20194;-74
2022/11/02 05:43:20;;;;;;;8.20;2.90;;;9.70;99.90;;;;;;5092571;28;20200;-76
2022/11/02 05:45:57;;;;;;;5.83;2.77;;;9.70;99.90;;;;;;5067230;28;20320;-74
2022/11/02 05:48:24;;;;;;;9.83;2.87;;;9.70;99.90;;;;;;5085798;28;20679;-74
2022/11/02 05:50:58;;;;;;;7.23;3.03;;;9.70;99.90;;;;;;5085911;28;20213;-75
2022/11/02 05:53:25;;;;;;;6.73;2.40;;;9.60;99.90;;;;;;5067616;28;20202;-74
2022/11/02 05:55:51;;;;;;;11.20;2.67;;;9.70;99.90;;;;;;5086216;28;20210;-73
2022/11/02 05:58:17;;;;;;;5.57;2.57;;;9.60;99.90;;;;;;5068510;28;20167;-74
2022/11/02 06:00:43;;;;;;;10.57;2.40;;;9.60;99.90;;;;;;5066425;28;20229;-74
2022/11/02 06:03:09;;;;;;;6.50;2.57;;;9.60;99.90;;;;;;5073436;28;20199;-74
2022/11/02 06:05:34;;;;;;;7.70;2.47;;;9.50;99.90;;;;;;5085372;28;20201;-74
2022/11/02 06:08:00;;;;;;;4.67;2.33;;;9.50;99.90;;;;;;5088380;28;20708;-75
2022/11/02 06:10:27;;;;;;;7.90;2.50;;;9.60;99.90;;;;;;5095348;28;20193;-74
2022/11/02 06:12:57;;;;;;;8.57;2.70;;;9.60;99.90;;;;;;5072364;28;20893;-74
2022/11/02 06:15:23;;;;;;;8.20;2.43;;;9.60;99.90;;;;;;5083320;28;20238;-73
2022/11/02 06:17:50;;;;;;;4.80;2.40;;;9.70;99.90;;;;;;5091054;28;20244;-74
2022/11/02 06:20:15;;;;;;;5.30;2.00;;;9.70;99.90;;;;;;5092167;28;20216;-74
2022/11/02 06:22:41;;;;;;;7.57;2.60;;;9.80;99.90;;;;;;5085006;28;20170;-75
2022/11/02 06:25:07;;;;;;;8.63;2.63;;;9.90;99.90;;;;;;5090539;28;20616;-74
2022/11/02 06:27:33;;;;;;;8.63;2.57;;;9.90;99.90;;;;;;5075940;28;20202;-74
2022/11/02 06:29:59;;;;;;;7.03;2.77;;;9.90;99.90;;;;;;5077163;28;20205;-74
2022/11/02 06:32:24;;;;;;;5.83;2.20;;;10.30;99.90;;;;;;5087542;28;20263;-74
2022/11/02 06:34:50;;;;;;;5.63;2.10;;;11.30;99.90;;;;;;5095230;28;20998;-74
2022/11/02 06:37:16;;;;;;;12.43;2.87;;;11.90;99.90;;;;;;5097425;28;20160;-74
2022/11/02 06:39:41;;;;;;;9.00;2.00;;;11.80;99.90;;;;;;5087932;28;20222;-75
2022/11/02 06:42:07;;;;;;;6.77;2.10;;;11.30;99.90;;;;;;5081825;28;20209;-74
2022/11/02 06:44:32;;;;;;;8.53;2.23;;;11.20;99.90;;;;;;5098634;28;20210;-75
2022/11/02 06:46:58;;;;;;;5.43;2.33;;;11.20;99.90;;;;;;5077950;28;20175;-74
2022/11/02 06:49:23;;;;;;;8.97;2.20;;;11.40;99.90;;;;;;5088243;28;20239;-74
2022/11/02 06:51:52;;;;;;;6.87;2.03;;;12.50;99.90;;;;;;5095788;28;20297;-74
2022/11/02 06:54:17;;;;;;;6.40;1.77;;;12.80;99.90;;;;;;5096885;28;20224;-74
2022/11/02 06:56:43;;;;;;;9.10;2.63;;;13.50;99.90;;;;;;5068175;28;20684;-74
2022/11/02 06:59:09;;;;;;;8.87;2.20;;;13.60;99.90;;;;;;5087227;28;20206;-75
2022/11/02 07:01:34;;;;;;;6.67;2.13;;;13.80;99.90;;;;;;5074503;28;20479;-75
2022/11/02 07:04:00;;;;;;;6.20;2.00;;;13.90;99.90;;;;;;5091095;28;20218;-75
2022/11/02 07:06:26;;;;;;;7.88;2.75;;;14.40;99.90;;;;;;5082958;28;20237;-75
2022/11/02 07:08:52;;;;;;;9.18;2.25;;;15.10;99.90;;;;;;5094937;28;20231;-74
2022/11/02 07:11:18;;;;;;;8.48;2.40;;;15.40;99.90;;;;;;5078599;28;20566;-74
2022/11/02 07:13:44;;;;;;;5.03;1.85;;;14.80;99.90;;;;;;5088884;28;20166;-74
2022/11/02 07:16:09;;;;;;;5.47;2.00;;;14.50;99.90;;;;;;5087714;28;20265;-75
2022/11/02 07:18:35;;;;;;;8.20;2.40;;;13.50;99.90;;;;;;5097786;28;20226;-74
2022/11/02 07:21:01;;;;;;;13.55;3.05;;;13.80;99.90;;;;;;5091841;28;20211;-75
2022/11/02 07:23:27;;;;;;;7.90;2.10;;;15.00;99.90;;;;;;5075999;28;20552;-75
2022/11/02 07:25:53;;;;;;;4.40;2.10;;;15.70;99.90;;;;;;5081322;28;20177;-75
2022/11/02 07:28:18;;;;;;;6.15;1.77;;;16.20;99.90;;;;;;5097842;28;20165;-74
2022/11/02 07:30:44;;;;;;;5.57;1.83;;;17.10;99.90;;;;;;5088151;28;20214;-75
2022/11/02 07:33:10;;;;;;;5.28;1.83;;;17.60;99.90;;;;;;5088242;28;20210;-75
2022/11/02 07:35:36;;;;;;;4.72;2.20;;;17.20;99.90;;;;;;5098213;28;20229;-75
2022/11/02 07:38:04;;;;;;;8.02;2.40;;;18.00;99.90;;;;;;5091264;28;20171;-75
2022/11/02 07:40:31;;;;;;;8.57;2.42;;;17.90;99.90;;;;;;5066111;28;20206;-75
2022/11/02 07:42:57;;;;;;;6.82;2.47;;;18.40;99.90;;;;;;5069434;28;20677;-75
2022/11/02 07:45:24;;;;;;;5.38;2.40;;;18.40;99.90;;;;;;5076328;28;20676;-76
2022/11/02 07:47:50;;;;;;;4.65;2.13;;;18.80;99.90;;;;;;5087868;28;20222;-75
2022/11/02 07:50:19;;;;;;;7.68;2.20;;;19.00;99.90;;;;;;5077807;28;20210;-74
2022/11/02 07:52:47;;;;;;;4.80;2.03;;;18.40;99.90;;;;;;5093638;28;20200;-75
2022/11/02 07:55:14;;;;;;;5.47;2.10;;;17.80;99.90;;;;;;5092710;28;20213;-75
2022/11/02 07:57:42;;;;;;;6.50;2.60;;;18.10;99.90;;;;;;5085758;28;20222;-75
2022/11/02 08:00:11;;;;;;;5.75;1.88;;;18.10;99.90;;;;;;5089087;28;20669;-75
2022/11/02 08:02:37;;;;;;;5.53;2.15;;;17.80;99.90;;;;;;5067343;28;20199;-75
2022/11/02 08:05:03;;;;;;;7.32;2.45;;;17.20;99.90;;;;;;5089484;28;20182;-75
2022/11/02 08:07:29;;;;;;;8.85;2.35;;;17.10;99.90;;;;;;5078923;28;20174;-74
2022/11/02 08:09:54;;;;;;;6.00;2.58;;;16.60;99.90;;;;;;5095152;28;20202;-74
2022/11/02 08:12:20;;;;;;;4.43;2.30;;;15.50;99.90;;;;;;5075390;28;20206;-75
2022/11/02 08:14:45;;;;;;;9.15;2.70;;;15.10;99.90;;;;;;5071708;28;20574;-74
2022/11/02 08:17:11;;;;;;;8.05;2.53;;;14.80;99.90;;;;;;5074523;28;20206;-75
2022/11/02 08:19:36;;;;;;;6.22;2.13;;;14.50;99.90;;;;;;5094523;28;20194;-75
2022/11/02 08:22:02;;;;;;;8.35;2.17;;;14.60;99.90;;;;;;5075135;28;20223;-75
2022/11/02 08:24:28;;;;;;;8.07;2.65;;;14.70;99.90;;;;;;5076852;28;20206;-75
2022/11/02 08:26:53;;;;;;;9.88;2.83;;;14.60;99.90;;;;;;5094711;28;20209;-74
2022/11/02 08:29:19;;;;;;;9.30;2.90;;;14.40;99.90;;;;;;5074300;28;20233;-74
2022/11/02 08:31:46;;;;;;;6.68;2.50;;;14.40;99.90;;;;;;5079950;28;20218;-75
2022/11/02 08:34:11;;;;;;;10.02;2.47;;;14.00;99.90;;;;;;5072081;28;20249;-73
2022/11/02 08:36:37;;;;;;;9.25;2.28;;;13.90;99.90;;;;;;5069674;28;20226;-75
2022/11/02 08:39:03;;;;;;;7.38;2.50;;;13.70;99.90;;;;;;5087360;28;20199;-75
2022/11/02 08:41:28;;;;;;;7.28;2.30;;;13.60;99.90;;;;;;5088804;28;20204;-75
2022/11/02 08:43:54;;;;;;;8.82;2.22;;;13.60;99.90;;;;;;5095369;28;20170;-74
2022/11/02 08:46:19;;;;;;;9.18;2.60;;;13.40;99.90;;;;;;5094483;28;20165;-75
2022/11/02 08:48:45;;;;;;;9.18;2.53;;;13.50;99.90;;;;;;5085113;28;20219;-75
2022/11/02 08:51:11;;;;;;;8.93;2.20;;;13.50;99.90;;;;;;5075837;28;20210;-75
2022/11/02 08:53:36;;;;;;;9.23;2.33;;;13.40;99.90;;;;;;5070069;28;20203;-74
2022/11/02 08:56:05;;;;;;;9.02;2.80;;;13.40;99.90;;;;;;5076014;28;20584;-75
2022/11/02 08:58:31;;;;;;;5.77;2.30;;;13.70;99.90;;;;;;5064352;28;20174;-75
2022/11/02 09:00:56;;;;;;;8.93;3.00;;;14.00;99.90;;;;;;5089589;28;20257;-74
2022/11/02 09:03:23;;;;;;;6.63;2.50;;;14.20;99.90;;;;;;5069778;28;20260;-74
2022/11/02 09:05:49;;;;;;;5.72;2.90;;;14.70;99.90;;;;;;5084012;28;20211;-75
2022/11/02 09:08:17;;;;;;;6.28;2.58;;;14.90;99.90;;;;;;5093397;28;20201;-75
2022/11/02 09:10:44;;;;;;;7.90;2.15;;;14.90;99.90;;;;;;5092006;28;20195;-74
2022/11/02 09:13:12;;;;;;;6.22;2.47;;;14.90;99.90;;;;;;5089547;28;20297;-76
2022/11/02 09:15:41;;;;;;;11.45;3.08;;;15.10;99.90;;;;;;5082655;28;20206;-75
2022/11/02 09:18:07;;;;;;;9.57;2.78;;;15.30;99.90;;;;;;5078121;28;20297;-75
2022/11/02 09:20:33;;;;;;;5.50;2.35;;;15.80;99.90;;;;;;5091573;28;20599;-75
2022/11/02 09:22:59;;;;;;;11.02;2.38;;;16.00;99.90;;;;;;5064281;28;20254;-74
2022/11/02 09:25:25;;;;;;;9.30;2.83;;;16.20;99.90;;;;;;5094594;28;20268;-74
2022/11/02 09:27:54;;;;;;;8.82;2.67;;;16.60;99.90;;;;;;5076602;28;20209;-74
2022/11/02 09:30:20;;;;;;;8.07;2.50;;;16.60;99.90;;;;;;5086229;28;20225;-74
2022/11/02 09:33:02;;;;;;;9.77;2.63;;;16.80;99.90;;;;;;5082150;28;20203;-74
2022/11/02 09:35:33;;;;;;;11.32;4.40;;;16.80;99.90;;;;;;5092798;28;20214;-74
2022/11/02 09:37:59;;;;;;;6.25;2.20;;;16.80;99.90;;;;;;5089775;28;20536;-74
2022/11/02 09:40:34;;;;;;;8.65;2.78;;;16.80;99.90;;;;;;5064588;28;20203;-75
2022/11/02 09:43:17;;;;;;;6.25;2.28;;;16.70;99.90;;;;;;5089543;28;20241;-75
2022/11/02 09:46:12;;;;;;;9.55;3.38;;;16.90;99.90;;;;;;5090019;28;20255;-75
2022/11/02 09:49:14;;;;;;;11.23;2.45;;;16.80;99.90;;;;;;5045744;28;20372;-75
2022/11/02 09:51:48;;;;;;;9.00;2.25;;;16.60;99.90;;;;;;5014141;28;20300;-75
2022/11/02 09:54:35;;;;;;;8.00;1.85;;;16.60;99.90;;;;;;5060938;28;20247;-73
2022/11/02 09:57:09;;;;;;;6.57;2.47;;;16.60;99.90;;;;;;5084202;28;20203;-74
2022/11/02 09:59:35;;;;;;;10.38;4.47;;;16.40;99.90;;;;;;5075527;28;20857;-73
2022/11/02 10:02:38;;;;;;;3.90;1.80;;;16.50;99.90;;;;;;5076836;28;20195;-73
2022/11/02 10:05:09;;;;;;;6.30;2.00;;;16.60;99.90;;;;;;5086145;28;20175;-73
2022/11/02 10:08:12;;;;;;;8.30;2.63;;;16.80;99.90;;;;;;5087559;28;20222;-73
2022/11/02 10:10:59;;;;;;;6.00;1.90;;;16.90;99.90;;;;;;5091552;28;20213;-73
2022/11/02 10:13:43;;;;;;;5.75;2.08;;;16.70;99.90;;;;;;5064147;28;20207;-73
2022/11/02 10:16:20;;;;;;;9.10;2.00;;;16.80;99.90;;;;;;5084522;28;20215;-73
2022/11/02 10:18:49;;;;;;;7.05;2.33;;;16.50;99.90;;;;;;5087687;28;20205;-74
2022/11/02 10:21:22;;;;;;;5.72;2.20;;;16.70;99.90;;;;;;5090530;28;20225;-74
2022/11/02 10:23:53;;;;;;;8.82;2.28;;;16.70;99.90;;;;;;5062623;28;20615;-74
2022/11/02 10:26:26;;;;;;;8.50;2.90;;;16.90;99.90;;;;;;5099496;28;20201;-74
2022/11/02 10:29:05;;;;;;;6.88;1.98;;;16.90;99.90;;;;;;5090483;28;20186;-75
2022/11/02 10:31:33;;;;;;;8.43;2.38;;;16.90;99.90;;;;;;5085978;28;20205;-73
2022/11/02 10:34:19;;;;;;;6.32;2.00;;;17.20;99.90;;;;;;5076478;28;20289;-73
2022/11/02 10:37:14;;;;;;;10.48;2.85;;;16.80;99.90;;;;;;5069302;28;20256;-73
2022/11/02 10:40:01;;;;;;;10.25;2.95;;;16.80;99.90;;;;;;5032349;28;20199;-73
2022/11/02 10:43:02;;;;;;;6.35;2.13;;;16.70;99.90;;;;;;5087097;28;20698;-73
2022/11/02 10:45:48;;;;;;;9.52;2.92;;;16.70;99.90;;;;;;4994027;28;20780;-73
2022/11/02 10:48:29;;;;;;;11.63;2.72;;;16.70;99.90;;;;;;5087664;28;20251;-73
2022/11/02 10:51:14;;;;;;;5.97;2.58;;;16.80;99.90;;;;;;5085620;28;20288;-74
2022/11/02 10:53:49;;;;;;;5.38;1.88;;;16.80;99.90;;;;;;5092397;28;20214;-74
2022/11/02 10:56:18;;;;;;;9.40;2.28;;;16.70;99.90;;;;;;5088881;28;20212;-74
2022/11/02 10:59:22;;;;;;;8.00;2.47;;;16.60;99.90;;;;;;5081655;28;20190;-75
2022/11/02 11:01:50;;;;;;;9.82;2.58;;;16.50;99.90;;;;;;5068242;28;20206;-75
2022/11/02 11:04:21;;;;;;;7.13;2.30;;;16.50;99.90;;;;;;5072586;28;20815;-74
2022/11/02 11:06:47;;;;;;;6.55;2.00;;;16.50;99.90;;;;;;5080449;28;20214;-75
2022/11/02 11:09:23;;;;;;;4.25;2.13;;;16.60;99.90;;;;;;5096820;28;20218;-74
2022/11/02 11:12:01;;;;;;;5.22;1.77;;;16.50;99.90;;;;;;5068598;28;20202;-74
2022/11/02 11:14:29;;;;;;;5.25;2.40;;;16.50;99.90;;;;;;5084941;28;20210;-75
2022/11/02 11:17:00;;;;;;;8.82;2.17;;;16.60;99.90;;;;;;5078573;28;20383;-74
2022/11/02 11:19:33;;;;;;;7.97;2.30;;;16.50;99.90;;;;;;5102855;28;20177;-75
2022/11/02 11:22:00;;;;;;;6.55;2.13;;;16.60;99.90;;;;;;5079392;28;20208;-74
2022/11/02 11:24:27;;;;;;;6.25;2.70;;;16.60;99.90;;;;;;5092295;28;20758;-75
2022/11/02 11:27:21;;;;;;;9.68;2.83;;;16.60;99.90;;;;;;5080280;28;20330;-74
2022/11/02 11:29:54;;;;;;;7.13;2.58;;;16.60;99.90;;;;;;5069782;28;20224;-74
2022/11/02 11:32:25;;;;;;;12.20;2.75;;;16.50;99.90;;;;;;5086379;28;20719;-74
2022/11/02 11:35:03;;;;;;;9.65;2.40;;;16.30;99.90;;;;;;5095267;28;20194;-74
2022/11/02 11:37:29;;;;;;;8.57;2.92;;;16.20;99.90;;;;;;5093118;28;20166;-74
2022/11/02 11:40:16;;;;;;;9.88;2.40;;;16.20;99.90;;;;;;5085919;28;20210;-74
2022/11/02 11:42:42;;;;;;;9.07;2.88;;;16.20;99.90;;;;;;5073862;28;20280;-74
2022/11/02 11:45:21;;;;;;;7.70;2.08;;;16.20;99.90;;;;;;5096713;28;20225;-74
2022/11/02 11:47:53;;;;;;;10.38;2.33;;;16.10;99.90;;;;;;5075218;28;20206;-75
2022/11/02 11:50:19;;;;;;;8.50;2.45;;;16.10;99.90;;;;;;5087564;28;20679;-74
2022/11/02 11:52:44;;;;;;;8.65;2.70;;;16.10;99.90;;;;;;5097338;28;20190;-74
2022/11/02 11:55:22;;;;;;;6.72;2.22;;;16.10;99.90;;;;;;5094766;28;20268;-75
2022/11/02 11:58:17;;;;;;;7.57;2.10;;;16.10;99.90;;;;;;5092549;28;20205;-74
2022/11/02 12:00:43;;;;;;;5.95;1.90;;;16.10;99.90;;;;;;5095066;28;20202;-74
2022/11/02 12:03:10;;;;;;;8.38;2.25;;;16.10;99.90;;;;;;5093831;28;20199;-74
2022/11/02 12:05:56;;;;;;;4.65;2.17;;;16.10;99.90;;;;;;5091269;28;20205;-76
2022/11/02 12:08:30;;;;;;;6.60;2.28;;;16.10;99.90;;;;;;5092541;28;20769;-74
2022/11/02 12:11:21;;;;;;;7.35;2.35;;;16.00;99.90;;;;;;5077865;28;20285;-75
2022/11/02 12:14:24;;;;;;;10.23;2.58;;;16.00;99.90;;;;;;5071300;28;20170;-75
2022/11/02 12:16:52;;;;;;;3.90;2.28;;;16.20;99.90;;;;;;5091038;28;20178;-75
2022/11/02 12:19:49;;;;;;;7.18;1.92;;;16.20;99.90;;;;;;5069996;28;20162;-74
2022/11/02 12:22:22;;;;;;;6.63;1.88;;;16.20;99.90;;;;;;5072580;28;20255;-74
2022/11/02 12:24:51;;;;;;;6.90;2.75;;;16.30;99.90;;;;;;5073867;28;20264;-74
2022/11/02 12:27:46;;;;;;;8.15;2.67;;;16.30;99.90;;;;;;5096442;28;20198;-74
2022/11/02 12:30:19;;;;;;;8.27;2.50;;;16.30;99.90;;;;;;5088930;28;20216;-75
2022/11/02 12:33:22;;;;;;;8.80;2.65;;;16.20;99.90;;;;;;5083968;28;20211;-76
2022/11/02 12:36:12;;;;;;;7.68;2.20;;;16.30;99.90;;;;;;5091422;28;20270;-76
2022/11/02 12:39:07;;;;;;;9.05;3.22;;;16.60;99.90;;;;;;5089555;28;20213;-73
2022/11/02 12:41:51;;;;;;;10.63;1.98;;;16.80;99.90;;;;;;5067396;28;20206;-73
2022/11/02 12:44:47;;;;;;;2.50;1.70;;;16.80;99.90;;;;;;5097079;28;20203;-73
2022/11/02 12:47:43;;;;;;;3.63;1.92;;;16.60;99.90;;;;;;5090060;28;20194;-73
2022/11/02 12:50:31;;;;;;;7.82;2.45;;;16.60;99.90;;;;;;5085839;28;20211;-73
2022/11/02 12:53:18;;;;;;;4.50;1.63;;;16.60;99.90;;;;;;5096716;28;20227;-72
2022/11/02 12:55:47;;;;;;;6.20;1.92;;;16.60;99.90;;;;;;5088593;28;20198;-73
2022/11/02 12:58:26;;;;;;;5.63;1.92;;;16.50;99.90;;;;;;5085615;28;20218;-72
2022/11/02 13:01:01;;;;;;;6.75;1.50;;;16.30;99.90;;;;;;5092412;28;20877;-73
2022/11/02 13:03:34;;;;;;;4.85;1.67;;;16.20;99.90;;;;;;5072802;28;20205;-73
2022/11/02 13:06:07;;;;;;;5.50;2.30;;;16.20;99.90;;;;;;5085473;28;20282;-75
2022/11/02 13:08:51;;;;;;;3.08;1.73;;;16.20;99.90;;;;;;5094694;28;20224;-74
2022/11/02 13:11:39;;;;;;;4.72;1.60;;;16.10;99.90;;;;;;5095005;28;20316;-74
2022/11/02 13:14:21;;;;;;;7.00;1.83;;;16.10;99.90;;;;;;5089043;28;20203;-76
2022/11/02 13:16:53;;;;;;;6.15;1.58;;;15.90;99.90;;;;;;5087587;28;20170;-73
2022/11/02 13:19:27;;;;;;;7.60;1.80;;;15.90;99.90;;;;;;5092582;28;20157;-73
2022/11/02 13:21:55;;;;;;;3.92;1.50;;;15.90;99.90;;;;;;5073097;28;20206;-73
2022/11/02 13:24:25;;;;;;;5.10;1.60;;;15.90;99.90;;;;;;5063219;28;20202;-73
2022/11/02 13:26:51;;;;;;;4.10;1.52;;;15.90;99.90;;;;;;5095198;28;20205;-74